sensor_id;sensor_type;location;lat;lon;timestamp;temperature;humidity
43528;DHT22;52359;42.658;23.320;2023-04-12T04:58:18;9.00;99.90
43528;DHT22;52359;42.658;23.320;2023-04-12T05:00:44;9.00;99.90
43528;DHT22;52359;42.658;23.320;2023-04-12T05:03:10;9.00;99.90
43528;DHT22;52359;42.658;23.320;2023-04-12T05:05:36;9.00;99.90
43528;DHT22;52359;42.658;23.320;2023-04-12T05:08:02;9.00;99.90
43528;DHT22;52359;42.658;23.320;2023-04-12T05:10:28;9.00;99.90
43528;DHT22;52359;42.658;23.320;2023-04-12T05:12:53;8.90;99.90
43528;DHT22;52359;42.658;23.320;2023-04-12T05:15:19;9.00;99.90
43528;DHT22;52359;42.658;23.320;2023-04-12T05:17:45;8.90;99.90
43528;DHT22;52359;42.658;23.320;2023-04-12T05:20:11;9.00;99.90
43528;DHT22;52359;42.658;23.320;2023-04-12T05:22:37;9.00;99.90
43528;DHT22;52359;42.658;23.320;2023-04-12T05:25:02;9.00;99.90
43528;DHT22;52359;42.658;23.320;2023-04-12T05:27:29;9.00;99.90
43528;DHT22;52359;42.658;23.320;2023-04-12T05:29:58;9.10;99.90
43528;DHT22;52359;42.658;23.320;2023-04-12T05:32:24;9.10;99.90
43528;DHT22;52359;42.658;23.320;2023-04-12T05:34:50;9.10;99.90
43528;DHT22;52359;42.658;23.320;2023-04-12T05:37:17;9.10;99.90
43528;DHT22;52359;42.658;23.320;2023-04-12T05:39:42;9.10;99.90
43528;DHT22;52359;42.658;23.320;2023-04-12T05:42:08;9.10;99.90
43528;DHT22;52359;42.658;23.320;2023-04-12T05:44:34;9.20;99.90
43528;DHT22;52359;42.658;23.320;2023-04-12T05:47:03;9.10;99.90
43528;DHT22;52359;42.658;23.320;2023-04-12T05:49:29;9.10;99.90
43528;DHT22;52359;42.658;23.320;2023-04-12T05:51:58;9.10;99.90
43528;DHT22;52359;42.658;23.320;2023-04-12T05:54:24;9.10;99.90
43528;DHT22;52359;42.658;23.320;2023-04-12T05:56:50;9.10;99.90
43528;DHT22;52359;42.658;23.320;2023-04-12T05:59:16;9.10;99.90
43528;DHT22;52359;42.658;23.320;2023-04-12T06:01:44;9.10;99.90
43528;DHT22;52359;42.658;23.320;2023-04-12T06:04:09;9.10;99.90
43528;DHT22;52359;42.658;23.320;2023-04-12T06:06:35;9.10;99.90
43528;DHT22;52359;42.658;23.320;2023-04-12T06:09:01;9.10;99.90
43528;DHT22;52359;42.658;23.320;2023-04-12T06:11:29;9.00;99.90
43528;DHT22;52359;42.658;23.320;2023-04-12T06:13:56;9.00;99.90
43528;DHT22;52359;42.658;23.320;2023-04-12T06:16:21;9.00;99.90
43528;DHT22;52359;42.658;23.320;2023-04-12T06:18:47;8.90;99.90
43528;DHT22;52359;42.658;23.320;2023-04-12T06:21:13;8.90;99.90
43528;DHT22;52359;42.658;23.320;2023-04-12T06:23:38;8.90;99.90
43528;DHT22;52359;42.658;23.320;2023-04-12T06:26:04;8.90;99.90
43528;DHT22;52359;42.658;23.320;2023-04-12T06:28:30;8.80;99.90
43528;DHT22;52359;42.658;23.320;2023-04-12T06:30:56;8.90;99.90
43528;DHT22;52359;42.658;23.320;2023-04-12T06:33:21;8.90;99.90
43528;DHT22;52359;42.658;23.320;2023-04-12T06:35:48;8.90;99.90
43528;DHT22;52359;42.658;23.320;2023-04-12T06:38:13;8.90;99.90
43528;DHT22;52359;42.658;23.320;2023-04-12T06:40:39;8.90;99.90
43528;DHT22;52359;42.658;23.320;2023-04-12T06:43:05;8.90;99.90
43528;DHT22;52359;42.658;23.320;2023-04-12T06:45:31;9.00;99.90
43528;DHT22;52359;42.658;23.320;2023-04-12T06:47:56;9.10;99.90
43528;DHT22;52359;42.658;23.320;2023-04-12T06:50:24;9.10;99.90
43528;DHT22;52359;42.658;23.320;2023-04-12T06:52:49;9.10;99.90
43528;DHT22;52359;42.658;23.320;2023-04-12T06:55:15;9.20;99.90
43528;DHT22;52359;42.658;23.320;2023-04-12T06:57:41;9.20;99.90
43528;DHT22;52359;42.658;23.320;2023-04-12T07:00:08;9.10;99.90
43528;DHT22;52359;42.658;23.320;2023-04-12T07:02:33;9.10;99.90
43528;DHT22;52359;42.658;23.320;2023-04-12T07:04:59;9.10;99.90
43528;DHT22;52359;42.658;23.320;2023-04-12T07:07:25;9.20;99.90
43528;DHT22;52359;42.658;23.320;2023-04-12T07:09:50;9.20;99.90
43528;DHT22;52359;42.658;23.320;2023-04-12T07:12:17;9.30;99.90
43528;DHT22;52359;42.658;23.320;2023-04-12T07:14:42;9.60;99.90
43528;DHT22;52359;42.658;23.320;2023-04-12T07:17:08;9.80;99.90
43528;DHT22;52359;42.658;23.320;2023-04-12T07:19:34;10.10;99.90
43528;DHT22;52359;42.658;23.320;2023-04-12T07:22:00;10.10;99.90
43528;DHT22;52359;42.658;23.320;2023-04-12T07:24:26;10.10;99.90
43528;DHT22;52359;42.658;23.320;2023-04-12T07:26:52;10.10;99.90
43528;DHT22;52359;42.658;23.320;2023-04-12T07:29:19;10.10;99.90
43528;DHT22;52359;42.658;23.320;2023-04-12T07:31:45;10.00;99.90
43528;DHT22;52359;42.658;23.320;2023-04-12T07:34:11;10.00;99.90
43528;DHT22;52359;42.658;23.320;2023-04-12T07:36:37;10.00;99.90
43528;DHT22;52359;42.658;23.320;2023-04-12T07:39:02;10.00;99.90
43528;DHT22;52359;42.658;23.320;2023-04-12T07:41:28;10.00;99.90
43528;DHT22;52359;42.658;23.320;2023-04-12T07:43:54;10.00;99.90
43528;DHT22;52359;42.658;23.320;2023-04-12T07:46:19;9.90;99.90
43528;DHT22;52359;42.658;23.320;2023-04-12T07:48:45;9.90;99.90
43528;DHT22;52359;42.658;23.320;2023-04-12T07:51:11;9.90;99.90
43528;DHT22;52359;42.658;23.320;2023-04-12T07:53:37;10.00;99.90
43528;DHT22;52359;42.658;23.320;2023-04-12T07:56:03;10.20;99.90
43528;DHT22;52359;42.658;23.320;2023-04-12T07:58:32;10.50;99.90
43528;DHT22;52359;42.658;23.320;2023-04-12T08:00:58;10.70;99.90
43528;DHT22;52359;42.658;23.320;2023-04-12T08:03:23;10.70;99.90
43528;DHT22;52359;42.658;23.320;2023-04-12T08:05:51;10.80;99.90
43528;DHT22;52359;42.658;23.320;2023-04-12T08:08:20;10.80;99.90
43528;DHT22;52359;42.658;23.320;2023-04-12T08:10:47;10.80;99.90
43528;DHT22;52359;42.658;23.320;2023-04-12T08:13:13;10.80;99.90
43528;DHT22;52359;42.658;23.320;2023-04-12T08:15:39;10.70;99.90
43528;DHT22;52359;42.658;23.320;2023-04-12T08:18:05;10.70;99.90
43528;DHT22;52359;42.658;23.320;2023-04-12T08:20:30;10.70;99.90
43528;DHT22;52359;42.658;23.320;2023-04-12T08:22:57;10.60;99.90
43528;DHT22;52359;42.658;23.320;2023-04-12T08:25:22;10.50;99.90
43528;DHT22;52359;42.658;23.320;2023-04-12T08:27:49;10.60;99.90
43528;DHT22;52359;42.658;23.320;2023-04-12T08:30:15;10.80;99.90
43528;DHT22;52359;42.658;23.320;2023-04-12T08:32:41;11.00;99.90
43528;DHT22;52359;42.658;23.320;2023-04-12T08:35:08;11.20;99.90
43528;DHT22;52359;42.658;23.320;2023-04-12T08:37:34;11.40;99.90
43528;DHT22;52359;42.658;23.320;2023-04-12T08:52:14;12.70;99.90
43528;DHT22;52359;42.658;23.320;2023-04-12T08:54:40;12.70;98.20
43528;DHT22;52359;42.658;23.320;2023-04-12T08:57:07;12.70;97.80
43528;DHT22;52359;42.658;23.320;2023-04-12T08:59:37;12.50;97.90
43528;DHT22;52359;42.658;23.320;2023-04-12T09:02:03;12.40;97.90
43528;DHT22;52359;42.658;23.320;2023-04-12T09:04:29;12.30;97.80
43528;DHT22;52359;42.658;23.320;2023-04-12T09:06:55;12.30;97.70
43528;DHT22;52359;42.658;23.320;2023-04-12T09:09:43;12.20;96.60
43528;DHT22;52359;42.658;23.320;2023-04-12T09:12:10;12.00;96.70
43528;DHT22;52359;42.658;23.320;2023-04-12T09:14:37;12.40;96.70
43528;DHT22;52359;42.658;23.320;2023-04-12T09:17:03;12.70;96.20
43528;DHT22;52359;42.658;23.320;2023-04-12T09:19:34;12.60;95.40
43528;DHT22;52359;42.658;23.320;2023-04-12T09:22:01;12.70;95.40
43528;DHT22;52359;42.658;23.320;2023-04-12T09:24:27;12.60;95.20
43528;DHT22;52359;42.658;23.320;2023-04-12T09:27:04;12.60;94.70
43528;DHT22;52359;42.658;23.320;2023-04-12T09:29:31;12.60;94.30
43528;DHT22;52359;42.658;23.320;2023-04-12T09:32:02;12.60;93.00
43528;DHT22;52359;42.658;23.320;2023-04-12T09:34:29;12.70;93.40
43528;DHT22;52359;42.658;23.320;2023-04-12T09:36:55;12.70;92.40
43528;DHT22;52359;42.658;23.320;2023-04-12T09:39:33;12.70;92.20
43528;DHT22;52359;42.658;23.320;2023-04-12T09:42:07;13.00;92.00
43528;DHT22;52359;42.658;23.320;2023-04-12T09:44:33;13.00;91.80
43528;DHT22;52359;42.658;23.320;2023-04-12T09:46:59;13.10;92.40
43528;DHT22;52359;42.658;23.320;2023-04-12T09:49:43;13.00;91.60
43528;DHT22;52359;42.658;23.320;2023-04-12T09:52:13;12.90;91.30
43528;DHT22;52359;42.658;23.320;2023-04-12T09:54:44;12.80;91.10
43528;DHT22;52359;42.658;23.320;2023-04-12T09:57:11;13.00;91.70
43528;DHT22;52359;42.658;23.320;2023-04-12T09:59:39;13.20;92.50
43528;DHT22;52359;42.658;23.320;2023-04-12T10:02:16;13.30;92.80
43528;DHT22;52359;42.658;23.320;2023-04-12T10:04:42;13.60;93.10
43528;DHT22;52359;42.658;23.320;2023-04-12T10:07:08;13.40;92.60
43528;DHT22;52359;42.658;23.320;2023-04-12T10:29:25;15.30;70.20
43528;DHT22;52359;42.658;23.320;2023-04-12T10:32:16;15.50;71.00
43528;DHT22;52359;42.658;23.320;2023-04-12T10:34:41;15.80;71.30
43528;DHT22;52359;42.658;23.320;2023-04-12T10:37:07;16.40;73.30
43528;DHT22;52359;42.658;23.320;2023-04-12T10:55:41;17.00;79.90
43528;DHT22;52359;42.658;23.320;2023-04-12T10:58:07;17.50;75.80
43528;DHT22;52359;42.658;23.320;2023-04-12T11:03:33;16.60;73.00
